Time;durP1;ratioP1;P1;durP2;ratioP2;P2;SDS_P1;SDS_P2;PMS_P1;PMS_P2;Temp;Humidity;BMP_temperature;BMP_pressure;BME280_temperature;BME280_humidity;BME280_pressure;Samples;Min_cycle;Max_cycle;Signal;HPM_P1;HPM_P2
2022/01/18 00:00:49;;;;;;;0.10;0.10;;;;;;;;;;5035401;28;20078;-60
2022/01/18 00:03:15;;;;;;;0.10;0.10;;;;;;;;;;5073038;28;20040;-61
2022/01/18 00:05:45;;;;;;;7.10;6.50;;;;;;;;;;5073006;28;20404;-61
2022/01/18 00:08:11;;;;;;;2.03;1.92;;;;;;;;;;5038091;28;20082;-61
2022/01/18 00:10:37;;;;;;;0.10;0.10;;;;;;;;;;5037994;28;20079;-61
2022/01/18 00:23:11;;;;;;;9.45;8.70;;;;;;;;;;5054800;28;20510;-60
2022/01/18 00:25:39;;;;;;;0.32;0.32;;;;;;;;;;5054676;28;20119;-60
2022/01/18 00:28:06;;;;;;;0.75;0.75;;;;;;;;;;5055106;28;20476;-62
2022/01/18 00:33:23;;;;;;;0.10;0.10;;;;;;;;;;5054607;28;20037;-61
2022/01/18 00:35:45;;;;;;;0.10;0.10;;;;;;;;;;5071989;28;20131;-62
2022/01/18 00:38:46;;;;;;;0.10;0.10;;;;;;;;;;5054557;28;20392;-61
2022/01/18 00:41:02;;;;;;;0.20;0.20;;;;;;;;;;5068108;28;20051;-61
2022/01/18 00:43:28;;;;;;;0.20;0.20;;;;;;;;;;5072250;28;20472;-61
2022/01/18 00:45:53;;;;;;;0.10;0.10;;;;;;;;;;5072059;28;20032;-61
2022/01/18 00:48:19;;;;;;;0.32;0.32;;;;;;;;;;5037727;28;20446;-61
2022/01/18 00:50:45;;;;;;;0.10;0.10;;;;;;;;;;5072110;28;20480;-61
2022/01/18 00:53:14;;;;;;;4.28;4.03;;;;;;;;;;5037731;28;20059;-61
2022/01/18 00:55:51;;;;;;;3.40;3.20;;;;;;;;;;5037607;28;20097;-60
2022/01/18 00:58:16;;;;;;;0.17;0.17;;;;;;;;;;5072182;28;20032;-61
2022/01/18 01:00:42;;;;;;;0.95;0.90;;;;;;;;;;5053827;28;20368;-62
2022/01/18 01:03:07;;;;;;;0.30;0.30;;;;;;;;;;5054439;28;20059;-61
2022/01/18 01:05:34;;;;;;;0.10;0.10;;;;;;;;;;5072300;28;20040;-62
2022/01/18 01:08:00;;;;;;;0.10;0.10;;;;;;;;;;5037506;28;20029;-61
2022/01/18 01:10:25;;;;;;;0.10;0.10;;;;;;;;;;5054048;28;20047;-59
2022/01/18 01:12:51;;;;;;;1.38;1.38;;;;;;;;;;5072047;28;20104;-61
2022/01/18 01:15:19;;;;;;;0.73;0.73;;;;;;;;;;5072025;28;20082;-61
2022/01/18 01:36:46;;;;;;;0.68;0.68;;;;;;;;;;5057170;28;20040;-61
2022/01/18 01:44:45;;;;;;;0.10;0.10;;;;;;;;;;5075015;28;20032;-61
2022/01/18 01:47:12;;;;;;;16.80;15.43;;;;;;;;;;5057244;28;20040;-61
2022/01/18 01:49:39;;;;;;;0.10;0.10;;;;;;;;;;5056860;28;20036;-62
2022/01/18 01:52:08;;;;;;;0.10;0.10;;;;;;;;;;5074904;28;20055;-62
2022/01/18 01:54:34;;;;;;;0.10;0.10;;;;;;;;;;5040325;28;20105;-61
2022/01/18 01:57:00;;;;;;;0.20;0.20;;;;;;;;;;5074472;28;20072;-60
2022/01/18 01:59:25;;;;;;;0.30;0.30;;;;;;;;;;5040358;28;20087;-60
2022/01/18 02:02:00;;;;;;;0.10;0.10;;;;;;;;;;5074812;28;20056;-61
2022/01/18 02:04:26;;;;;;;0.10;0.10;;;;;;;;;;5074862;28;20036;-61
2022/01/18 02:06:51;;;;;;;0.10;0.10;;;;;;;;;;5056729;28;20380;-60
2022/01/18 02:09:18;;;;;;;0.20;0.20;;;;;;;;;;5074516;28;20081;-61
2022/01/18 02:11:44;;;;;;;0.63;0.63;;;;;;;;;;5039793;28;20385;-61
2022/01/18 02:14:15;;;;;;;0.10;0.10;;;;;;;;;;5039988;28;20074;-62
2022/01/18 02:22:09;;;;;;;0.10;0.10;;;;;;;;;;5074243;28;20041;-62
2022/01/18 02:24:35;;;;;;;0.10;0.10;;;;;;;;;;5039891;28;20040;-62
2022/01/18 02:27:00;;;;;;;0.10;0.10;;;;;;;;;;5073235;28;20045;-62
2022/01/18 02:29:26;;;;;;;0.10;0.10;;;;;;;;;;5074225;28;20055;-61
2022/01/18 02:31:53;;;;;;;0.17;0.17;;;;;;;;;;5074408;28;20082;-61
2022/01/18 02:34:19;;;;;;;0.10;0.10;;;;;;;;;;5056363;28;20488;-62
2022/01/18 02:36:45;;;;;;;0.10;0.10;;;;;;;;;;5039443;28;20048;-62
2022/01/18 02:39:11;;;;;;;0.10;0.10;;;;;;;;;;5039603;28;20032;-62
2022/01/18 02:41:37;;;;;;;4.38;4.07;;;;;;;;;;5039567;28;20124;-63
2022/01/18 02:44:11;;;;;;;0.10;0.10;;;;;;;;;;5074022;28;20107;-62
2022/01/18 02:46:38;;;;;;;0.20;0.20;;;;;;;;;;5074167;28;20043;-62
2022/01/18 02:49:04;;;;;;;1.05;1.05;;;;;;;;;;5039400;28;20107;-62
2022/01/18 02:51:30;;;;;;;0.13;0.13;;;;;;;;;;5055853;28;20036;-61
2022/01/18 02:54:03;;;;;;;0.98;0.90;;;;;;;;;;5039471;28;20442;-62
2022/01/18 02:56:35;;;;;;;9.02;8.57;;;;;;;;;;5074074;28;20043;-61
2022/01/18 02:59:08;;;;;;;0.10;0.10;;;;;;;;;;5039368;28;20038;-61
2022/01/18 03:04:18;;;;;;;0.10;0.10;;;;;;;;;;5055808;28;20040;-61
2022/01/18 03:06:44;;;;;;;0.10;0.10;;;;;;;;;;5073575;28;20028;-61
2022/01/18 03:09:09;;;;;;;0.13;0.13;;;;;;;;;;5073470;28;20063;-61
2022/01/18 03:11:35;;;;;;;0.13;0.13;;;;;;;;;;5039208;28;20063;-61
2022/01/18 03:14:01;;;;;;;0.10;0.10;;;;;;;;;;5073675;28;20036;-61
2022/01/18 03:16:27;;;;;;;0.17;0.17;;;;;;;;;;5073324;28;20052;-61
2022/01/18 03:18:52;;;;;;;0.10;0.10;;;;;;;;;;5073907;28;20033;-62
2022/01/18 03:21:18;;;;;;;0.10;0.10;;;;;;;;;;5073670;28;20031;-61
2022/01/18 03:23:51;;;;;;;0.52;0.52;;;;;;;;;;5039009;28;20082;-62
2022/01/18 03:26:18;;;;;;;0.10;0.10;;;;;;;;;;5073502;28;20037;-62
2022/01/18 03:28:43;;;;;;;0.10;0.10;;;;;;;;;;5038776;28;20578;-62
2022/01/18 03:31:09;;;;;;;0.10;0.10;;;;;;;;;;5055327;28;20115;-62
2022/01/18 03:33:35;;;;;;;1.10;1.10;;;;;;;;;;5055469;28;20063;-62
2022/01/18 03:36:01;;;;;;;0.10;0.10;;;;;;;;;;5073293;28;20068;-62
2022/01/18 03:38:29;;;;;;;0.20;0.20;;;;;;;;;;5072850;28;20056;-61
2022/01/18 03:41:04;;;;;;;0.10;0.10;;;;;;;;;;5055755;28;20464;-62
2022/01/18 03:43:31;;;;;;;0.47;0.47;;;;;;;;;;5038717;28;20086;-62
2022/01/18 03:46:01;;;;;;;2.47;2.38;;;;;;;;;;5038642;28;20060;-61
2022/01/18 03:48:31;;;;;;;0.10;0.10;;;;;;;;;;5038885;28;20056;-62
2022/01/18 03:50:57;;;;;;;0.10;0.10;;;;;;;;;;5038591;28;20039;-62
2022/01/18 03:53:23;;;;;;;0.15;0.15;;;;;;;;;;5038472;28;20127;-61
2022/01/18 03:55:49;;;;;;;0.10;0.10;;;;;;;;;;5055065;28;20464;-61
2022/01/18 03:58:14;;;;;;;0.10;0.10;;;;;;;;;;5072744;28;20484;-62
2022/01/18 04:00:40;;;;;;;0.10;0.10;;;;;;;;;;5038314;28;20040;-61
2022/01/18 04:03:06;;;;;;;0.20;0.20;;;;;;;;;;5069007;28;20028;-61
2022/01/18 04:05:31;;;;;;;0.10;0.10;;;;;;;;;;5069208;28;20408;-68
2022/01/18 04:07:57;;;;;;;0.10;0.10;;;;;;;;;;5069333;28;20024;-61
2022/01/18 04:10:23;;;;;;;0.10;0.10;;;;;;;;;;5069015;28;20454;-62
2022/01/18 04:12:48;;;;;;;0.10;0.10;;;;;;;;;;5068662;28;20037;-62
2022/01/18 04:15:15;;;;;;;0.13;0.13;;;;;;;;;;5034419;28;20020;-61
2022/01/18 04:25:54;;;;;;;0.10;0.10;;;;;;;;;;5068301;28;20418;-61
2022/01/18 04:28:36;;;;;;;0.10;0.10;;;;;;;;;;5034231;28;20040;-61
2022/01/18 04:31:03;;;;;;;0.10;0.10;;;;;;;;;;5033989;28;20071;-64
2022/01/18 04:33:28;;;;;;;0.10;0.10;;;;;;;;;;5050807;28;20480;-62
2022/01/18 04:35:54;;;;;;;0.10;0.10;;;;;;;;;;5050523;28;20036;-61
2022/01/18 04:38:19;;;;;;;0.20;0.20;;;;;;;;;;5050642;28;20509;-61
2022/01/18 04:40:46;;;;;;;0.10;0.10;;;;;;;;;;5068013;28;20412;-61
2022/01/18 04:50:58;;;;;;;0.10;0.10;;;;;;;;;;5051426;28;20091;-61
2022/01/18 04:53:26;;;;;;;0.10;0.10;;;;;;;;;;5072075;28;20040;-61
2022/01/18 04:55:55;;;;;;;0.10;0.10;;;;;;;;;;5037373;28;20032;-61
2022/01/18 04:58:24;;;;;;;0.17;0.17;;;;;;;;;;5037200;28;20040;-61
2022/01/18 05:00:54;;;;;;;0.10;0.10;;;;;;;;;;5053901;28;20064;-62
2022/01/18 05:03:19;;;;;;;0.10;0.10;;;;;;;;;;5037155;28;20123;-61
2022/01/18 05:05:45;;;;;;;0.30;0.30;;;;;;;;;;5072096;28;20483;-61
2022/01/18 05:08:14;;;;;;;0.10;0.10;;;;;;;;;;5071526;28;20046;-61
2022/01/18 05:10:40;;;;;;;0.10;0.10;;;;;;;;;;5053720;28;20043;-61
2022/01/18 05:13:30;;;;;;;0.10;0.10;;;;;;;;;;5037060;28;20117;-63
2022/01/18 05:16:23;;;;;;;;;;;;;;;;;;5053772;28;20032;-61
2022/01/18 05:21:27;;;;;;;0.10;0.10;;;;;;;;;;5053824;28;20033;-63
2022/01/18 05:23:54;;;;;;;0.17;0.17;;;;;;;;;;5036960;28;20067;-62
2022/01/18 05:26:21;;;;;;;0.10;0.10;;;;;;;;;;5037033;28;20206;-62
2022/01/18 05:28:46;;;;;;;0.10;0.10;;;;;;;;;;5036618;28;20090;-62
2022/01/18 05:31:12;;;;;;;0.20;0.20;;;;;;;;;;5053382;28;20115;-62
2022/01/18 05:33:40;;;;;;;0.10;0.10;;;;;;;;;;5071328;28;20032;-61
2022/01/18 05:36:06;;;;;;;0.10;0.10;;;;;;;;;;5071215;28;20031;-62
2022/01/18 05:38:33;;;;;;;0.10;0.10;;;;;;;;;;5053314;28;20037;-64
2022/01/18 05:41:00;;;;;;;0.10;0.10;;;;;;;;;;5036788;28;20032;-61
2022/01/18 05:43:27;;;;;;;0.10;0.10;;;;;;;;;;5053115;28;20038;-62
2022/01/18 05:45:53;;;;;;;0.10;0.10;;;;;;;;;;5070979;28;20032;-62
2022/01/18 05:48:18;;;;;;;0.10;0.10;;;;;;;;;;5071218;28;20108;-62
2022/01/18 05:50:47;;;;;;;0.10;0.10;;;;;;;;;;5052611;28;20372;-62
2022/01/18 05:53:12;;;;;;;0.10;0.10;;;;;;;;;;5071108;28;20036;-61
2022/01/18 05:55:38;;;;;;;0.10;0.10;;;;;;;;;;5070954;28;20025;-61
2022/01/18 05:58:03;;;;;;;0.10;0.10;;;;;;;;;;5070854;28;20089;-62
2022/01/18 06:00:30;;;;;;;0.10;0.10;;;;;;;;;;5071054;28;20020;-62
2022/01/18 06:08:07;;;;;;;0.10;0.10;;;;;;;;;;5070660;28;20059;-63
2022/01/18 06:10:32;;;;;;;0.85;0.85;;;;;;;;;;5052359;28;20495;-66
2022/01/18 06:13:01;;;;;;;8.63;7.78;;;;;;;;;;5052690;28;20032;-64
2022/01/18 06:15:27;;;;;;;0.10;0.10;;;;;;;;;;5035867;28;20456;-62
2022/01/18 06:17:52;;;;;;;0.52;0.52;;;;;;;;;;5070593;28;20112;-62
2022/01/18 06:20:18;;;;;;;0.10;0.10;;;;;;;;;;5070518;28;20086;-66
2022/01/18 06:22:43;;;;;;;0.10;0.10;;;;;;;;;;5070138;28;20064;-61
2022/01/18 06:25:09;;;;;;;0.10;0.10;;;;;;;;;;5070566;28;20036;-61
2022/01/18 06:27:34;;;;;;;0.10;0.10;;;;;;;;;;5036116;28;20032;-62
2022/01/18 06:30:00;;;;;;;0.10;0.10;;;;;;;;;;5052382;28;20580;-61
2022/01/18 06:32:25;;;;;;;0.10;0.10;;;;;;;;;;5070342;28;20476;-66
2022/01/18 06:34:51;;;;;;;0.10;0.10;;;;;;;;;;5070493;28;20962;-61
2022/01/18 06:37:17;;;;;;;0.45;0.45;;;;;;;;;;5052253;28;20495;-64
2022/01/18 06:39:42;;;;;;;0.13;0.13;;;;;;;;;;5035872;28;20181;-62
2022/01/18 06:42:12;;;;;;;0.10;0.10;;;;;;;;;;5070435;28;20029;-61
2022/01/18 06:44:37;;;;;;;;;;;;;;;;;;5052437;28;20020;-63
2022/01/18 06:47:04;;;;;;;0.10;0.10;;;;;;;;;;5070103;28;19919;-62
2022/01/18 06:49:30;;;;;;;0.68;0.68;;;;;;;;;;5035241;28;20040;-61
2022/01/18 06:52:04;;;;;;;0.10;0.10;;;;;;;;;;5035026;28;20032;-61
2022/01/18 06:54:30;;;;;;;0.10;0.10;;;;;;;;;;5052374;28;20039;-63
2022/01/18 06:56:56;;;;;;;0.20;0.20;;;;;;;;;;5052347;28;20032;-62
2022/01/18 06:59:21;;;;;;;0.10;0.10;;;;;;;;;;5069934;28;20044;-61
2022/01/18 07:01:47;;;;;;;0.10;0.10;;;;;;;;;;5069615;28;20032;-61
2022/01/18 07:04:12;;;;;;;0.10;0.10;;;;;;;;;;5081690;28;20504;-61
2022/01/18 07:06:38;;;;;;;0.10;0.10;;;;;;;;;;5069359;28;20188;-61
2022/01/18 07:09:03;;;;;;;0.10;0.10;;;;;;;;;;5069552;28;20369;-62
2022/01/18 07:11:29;;;;;;;1.05;1.05;;;;;;;;;;5069614;28;20166;-61
2022/01/18 07:13:54;;;;;;;0.10;0.10;;;;;;;;;;5051191;28;20121;-63
2022/01/18 07:16:20;;;;;;;0.20;0.20;;;;;;;;;;5070104;28;20032;-61
2022/01/18 07:18:45;;;;;;;0.20;0.20;;;;;;;;;;5069360;28;20089;-61
2022/01/18 07:21:12;;;;;;;0.10;0.10;;;;;;;;;;5069512;28;20044;-61
2022/01/18 07:23:38;;;;;;;0.10;0.10;;;;;;;;;;5069765;28;20036;-68
2022/01/18 07:26:04;;;;;;;0.17;0.17;;;;;;;;;;5057524;28;20020;-62
2022/01/18 07:28:29;;;;;;;0.15;0.15;;;;;;;;;;5046235;28;20036;-61
2022/01/18 07:30:55;;;;;;;0.10;0.10;;;;;;;;;;5089268;28;20047;-61
2022/01/18 07:33:20;;;;;;;0.20;0.20;;;;;;;;;;5089445;28;20094;-62
2022/01/18 07:35:46;;;;;;;0.20;0.20;;;;;;;;;;5071210;28;20040;-62
2022/01/18 07:38:15;;;;;;;0.20;0.20;;;;;;;;;;5055125;28;20073;-63
2022/01/18 07:40:41;;;;;;;0.20;0.20;;;;;;;;;;5054556;28;20491;-63
2022/01/18 07:43:07;;;;;;;0.20;0.20;;;;;;;;;;5054755;28;20039;-61
2022/01/18 07:45:33;;;;;;;0.20;0.20;;;;;;;;;;5054375;28;20032;-62
2022/01/18 07:47:58;;;;;;;0.20;0.20;;;;;;;;;;5089308;28;20489;-62
2022/01/18 07:50:24;;;;;;;0.30;0.30;;;;;;;;;;5054244;28;20032;-62
2022/01/18 07:52:50;;;;;;;0.30;0.30;;;;;;;;;;5071193;28;20881;-62
2022/01/18 07:55:16;;;;;;;10.50;9.80;;;;;;;;;;5070381;28;20020;-62
2022/01/18 07:57:43;;;;;;;0.55;0.55;;;;;;;;;;5089448;28;20502;-61
2022/01/18 08:00:09;;;;;;;0.20;0.20;;;;;;;;;;5054201;28;20028;-61
2022/01/18 08:02:39;;;;;;;0.10;0.10;;;;;;;;;;5071206;28;20048;-62
2022/01/18 08:05:05;;;;;;;0.20;0.20;;;;;;;;;;5053946;28;20035;-63
2022/01/18 08:07:31;;;;;;;0.20;0.20;;;;;;;;;;5070957;28;20032;-60
2022/01/18 08:09:57;;;;;;;0.20;0.20;;;;;;;;;;5088808;28;20028;-61
2022/01/18 08:12:25;;;;;;;0.20;0.20;;;;;;;;;;5089174;28;20472;-62
2022/01/18 08:14:54;;;;;;;0.20;0.20;;;;;;;;;;5066623;28;20040;-62
2022/01/18 08:17:20;;;;;;;0.32;0.32;;;;;;;;;;5056204;28;20028;-69
2022/01/18 08:19:45;;;;;;;0.20;0.20;;;;;;;;;;5049923;28;20035;-67
2022/01/18 08:22:11;;;;;;;0.30;0.30;;;;;;;;;;5084213;28;20127;-68
2022/01/18 08:24:37;;;;;;;0.32;0.32;;;;;;;;;;5075216;28;20031;-68
2022/01/18 08:27:02;;;;;;;0.20;0.20;;;;;;;;;;5048510;28;20040;-68
2022/01/18 08:29:28;;;;;;;2.47;2.38;;;;;;;;;;5066314;28;20044;-68
2022/01/18 08:31:53;;;;;;;0.20;0.20;;;;;;;;;;5032090;28;20119;-68
2022/01/18 08:34:21;;;;;;;4.18;3.97;;;;;;;;;;5048504;28;20097;-69
2022/01/18 08:36:46;;;;;;;0.30;0.30;;;;;;;;;;5031768;28;20119;-68
2022/01/18 08:39:12;;;;;;;0.30;0.30;;;;;;;;;;5066469;28;20543;-67
2022/01/18 08:41:37;;;;;;;0.20;0.20;;;;;;;;;;5048881;28;20029;-68
2022/01/18 08:44:03;;;;;;;0.20;0.20;;;;;;;;;;5066631;28;20036;-68
2022/01/18 08:46:29;;;;;;;0.20;0.20;;;;;;;;;;5066342;28;20029;-68
2022/01/18 08:48:55;;;;;;;1.30;1.27;;;;;;;;;;5047373;28;20043;-67
2022/01/18 08:51:20;;;;;;;0.30;0.30;;;;;;;;;;5038133;28;20043;-68
2022/01/18 08:53:50;;;;;;;0.30;0.30;;;;;;;;;;5061438;28;20028;-69
2022/01/18 08:56:16;;;;;;;2.13;1.95;;;;;;;;;;5057927;28;20451;-69
2022/01/18 08:58:41;;;;;;;0.20;0.20;;;;;;;;;;5078740;28;20024;-67
2022/01/18 09:01:07;;;;;;;0.30;0.30;;;;;;;;;;5070034;28;20038;-69
2022/01/18 09:03:32;;;;;;;0.60;0.60;;;;;;;;;;5088298;28;20386;-67
2022/01/18 09:05:58;;;;;;;0.20;0.20;;;;;;;;;;5070117;28;20089;-67
2022/01/18 09:08:25;;;;;;;3.15;3.05;;;;;;;;;;5070371;28;20093;-67
2022/01/18 09:10:52;;;;;;;0.30;0.30;;;;;;;;;;5051409;28;20050;-67
2022/01/18 09:13:18;;;;;;;0.20;0.20;;;;;;;;;;5051686;28;20089;-67
2022/01/18 09:15:44;;;;;;;0.88;0.88;;;;;;;;;;5086308;28;20630;-67
2022/01/18 09:18:10;;;;;;;0.82;0.82;;;;;;;;;;5084105;28;20043;-67
2022/01/18 09:20:39;;;;;;;0.30;0.30;;;;;;;;;;5051318;28;20044;-67
2022/01/18 09:23:05;;;;;;;0.20;0.20;;;;;;;;;;5051396;28;20039;-67
2022/01/18 09:25:31;;;;;;;1.85;1.73;;;;;;;;;;5068978;28;20286;-67
2022/01/18 09:27:57;;;;;;;10.70;1.95;;;;;;;;;;5053143;28;20028;-69
2022/01/18 09:30:25;;;;;;;0.43;0.43;;;;;;;;;;5087638;28;20127;-69
2022/01/18 09:32:51;;;;;;;6.25;1.10;;;;;;;;;;5069508;28;20130;-68
2022/01/18 09:35:17;;;;;;;1.00;1.00;;;;;;;;;;5069650;28;20115;-67
2022/01/18 09:37:43;;;;;;;0.38;0.38;;;;;;;;;;5090141;28;20092;-69
2022/01/18 09:40:09;;;;;;;3.10;1.77;;;;;;;;;;5091525;28;20084;-69
2022/01/18 09:42:37;;;;;;;0.32;0.32;;;;;;;;;;5056327;28;20028;-68
2022/01/18 09:45:04;;;;;;;1.42;1.42;;;;;;;;;;5052767;28;20396;-67
2022/01/18 09:47:30;;;;;;;0.38;0.38;;;;;;;;;;5035872;28;20478;-68
2022/01/18 09:49:57;;;;;;;1.35;1.35;;;;;;;;;;5070775;28;20059;-68
2022/01/18 09:52:23;;;;;;;0.30;0.30;;;;;;;;;;5052805;28;20032;-68
2022/01/18 09:54:48;;;;;;;0.57;0.57;;;;;;;;;;5070913;28;20472;-69
2022/01/18 09:57:14;;;;;;;0.73;0.73;;;;;;;;;;5070584;28;20028;-68
2022/01/18 09:59:39;;;;;;;0.65;0.65;;;;;;;;;;5070946;28;20028;-68
2022/01/18 10:02:06;;;;;;;0.20;0.20;;;;;;;;;;5070354;28;20047;-68
2022/01/18 10:04:37;;;;;;;0.30;0.30;;;;;;;;;;5052786;28;20118;-68
2022/01/18 10:07:03;;;;;;;0.40;0.40;;;;;;;;;;5052493;28;20040;-68
2022/01/18 10:09:28;;;;;;;0.30;0.30;;;;;;;;;;5070085;28;20040;-68
2022/01/18 10:12:08;;;;;;;0.20;0.20;;;;;;;;;;5070542;28;20063;-68
2022/01/18 10:14:35;;;;;;;1.60;1.50;;;;;;;;;;5035698;28;20476;-68
2022/01/18 10:17:01;;;;;;;0.30;0.30;;;;;;;;;;5052523;28;20028;-68
2022/01/18 10:19:30;;;;;;;2.20;1.92;;;;;;;;;;5070260;28;20384;-68
2022/01/18 10:22:06;;;;;;;0.50;0.50;;;;;;;;;;5035640;28;20032;-68
2022/01/18 10:24:32;;;;;;;0.30;0.30;;;;;;;;;;5035659;28;20041;-68
2022/01/18 10:26:57;;;;;;;0.30;0.30;;;;;;;;;;5073234;28;20020;-67
2022/01/18 10:29:27;;;;;;;0.30;0.30;;;;;;;;;;5080416;28;20096;-68
2022/01/18 10:34:29;;;;;;;0.50;0.50;;;;;;;;;;5070239;28;20074;-68
2022/01/18 10:37:09;;;;;;;0.30;0.30;;;;;;;;;;5035315;28;20116;-68
2022/01/18 10:39:34;;;;;;;;;;;;;;;;;;5070173;28;20487;-67
2022/01/18 10:42:20;;;;;;;0.52;0.52;;;;;;;;;;5051894;28;19934;-68
2022/01/18 10:44:48;;;;;;;0.50;0.50;;;;;;;;;;5069947;28;20115;-68
2022/01/18 10:47:18;;;;;;;0.20;0.20;;;;;;;;;;5051889;28;20452;-67
2022/01/18 10:49:47;;;;;;;0.45;0.45;;;;;;;;;;5032726;28;20033;-67
2022/01/18 10:52:18;;;;;;;0.52;0.52;;;;;;;;;;5036438;28;20024;-68
2022/01/18 10:54:43;;;;;;;0.40;0.40;;;;;;;;;;5060646;28;20027;-68
2022/01/18 10:57:11;;;;;;;0.40;0.40;;;;;;;;;;5069812;28;20040;-68
2022/01/18 10:59:38;;;;;;;4.05;1.02;;;;;;;;;;5069555;28;20440;-66
2022/01/18 11:02:18;;;;;;;13.35;4.97;;;;;;;;;;5053016;28;20027;-68
2022/01/18 11:04:46;;;;;;;0.40;0.40;;;;;;;;;;5088896;28;20387;-68
2022/01/18 11:07:12;;;;;;;0.30;0.30;;;;;;;;;;5089057;28;20397;-68
2022/01/18 11:09:39;;;;;;;0.30;0.30;;;;;;;;;;5089247;28;20064;-68
2022/01/18 11:12:05;;;;;;;0.20;0.20;;;;;;;;;;5054860;28;20043;-68
2022/01/18 11:14:33;;;;;;;0.30;0.30;;;;;;;;;;5055231;28;20384;-68
2022/01/18 11:16:59;;;;;;;3.08;1.52;;;;;;;;;;5071618;28;20085;-68
2022/01/18 11:21:54;;;;;;;0.30;0.30;;;;;;;;;;5071095;28;20087;-68
2022/01/18 11:24:20;;;;;;;0.30;0.30;;;;;;;;;;5083646;28;20036;-67
2022/01/18 11:26:46;;;;;;;0.20;0.20;;;;;;;;;;5051800;28;20043;-67
2022/01/18 11:29:12;;;;;;;0.30;0.30;;;;;;;;;;5069961;28;20083;-68
2022/01/18 11:31:40;;;;;;;0.20;0.20;;;;;;;;;;5068101;28;20037;-68
2022/01/18 11:34:07;;;;;;;0.20;0.20;;;;;;;;;;5050392;28;20067;-67
2022/01/18 11:36:38;;;;;;;0.43;0.43;;;;;;;;;;5053569;28;20036;-67
2022/01/18 11:39:05;;;;;;;0.22;0.22;;;;;;;;;;5051977;28;20047;-67
2022/01/18 11:41:34;;;;;;;0.30;0.30;;;;;;;;;;5047013;28;20511;-68
2022/01/18 11:44:27;;;;;;;0.28;0.28;;;;;;;;;;5031950;28;20036;-68
2022/01/18 11:46:55;;;;;;;0.30;0.30;;;;;;;;;;5032194;28;20072;-68
2022/01/18 11:49:23;;;;;;;0.20;0.20;;;;;;;;;;5037404;28;20044;-67
2022/01/18 11:51:55;;;;;;;0.40;0.40;;;;;;;;;;5069011;28;20037;-67
2022/01/18 11:54:42;;;;;;;0.30;0.30;;;;;;;;;;5053076;28;20039;-68
2022/01/18 11:57:11;;;;;;;0.45;0.45;;;;;;;;;;5070234;28;20028;-67
2022/01/18 11:59:38;;;;;;;;;;;;;;;;;;5087600;28;20081;-67
2022/01/18 12:02:04;;;;;;;0.30;0.30;;;;;;;;;;5063287;28;19912;-68
2022/01/18 12:04:40;;;;;;;0.40;0.40;;;;;;;;;;5053311;28;20036;-68
2022/01/18 12:07:09;;;;;;;0.32;0.32;;;;;;;;;;5053570;28;20081;-67
2022/01/18 12:09:36;;;;;;;0.30;0.30;;;;;;;;;;5088091;28;20120;-67
2022/01/18 12:12:01;;;;;;;0.30;0.30;;;;;;;;;;5053414;28;20020;-68
2022/01/18 12:14:32;;;;;;;0.30;0.30;;;;;;;;;;5079085;28;20075;-67
2022/01/18 12:17:11;;;;;;;0.52;0.50;;;;;;;;;;5033850;28;20032;-68
2022/01/18 12:19:47;;;;;;;0.40;0.40;;;;;;;;;;5067972;28;20841;-69
2022/01/18 12:22:13;;;;;;;0.30;0.30;;;;;;;;;;5057941;28;20035;-67
2022/01/18 12:24:44;;;;;;;2.83;1.65;;;;;;;;;;5056080;28;20032;-68
2022/01/18 12:27:27;;;;;;;0.35;0.35;;;;;;;;;;5036181;28;20246;-68
2022/01/18 12:30:15;;;;;;;0.30;0.30;;;;;;;;;;5040946;28;20072;-68
2022/01/18 12:32:56;;;;;;;0.30;0.30;;;;;;;;;;5066301;28;20046;-68
2022/01/18 12:35:23;;;;;;;0.30;0.30;;;;;;;;;;5065751;28;20120;-67
2022/01/18 12:37:49;;;;;;;0.40;0.40;;;;;;;;;;5030938;28;20036;-68
2022/01/18 12:40:23;;;;;;;0.40;0.40;;;;;;;;;;5030979;28;20036;-67
2022/01/18 12:45:28;;;;;;;0.30;0.30;;;;;;;;;;5066065;28;20025;-66
2022/01/18 12:48:00;;;;;;;0.30;0.30;;;;;;;;;;5047617;28;20028;-67
2022/01/18 12:50:32;;;;;;;0.30;0.30;;;;;;;;;;5032677;28;20032;-68
2022/01/18 12:53:00;;;;;;;7.70;1.70;;;;;;;;;;5061161;28;20047;-68
2022/01/18 12:55:32;;;;;;;7.13;6.43;;;;;;;;;;5067933;28;20053;-68
2022/01/18 12:57:57;;;;;;;4.80;2.75;;;;;;;;;;5032926;28;20456;-68
2022/01/18 13:00:23;;;;;;;0.20;0.20;;;;;;;;;;5067455;28;20110;-67
2022/01/18 13:02:48;;;;;;;0.30;0.30;;;;;;;;;;5067420;28;20472;-68
2022/01/18 13:05:14;;;;;;;0.30;0.30;;;;;;;;;;5067458;28;20070;-68
2022/01/18 13:07:52;;;;;;;0.82;0.82;;;;;;;;;;5067323;28;20059;-68
2022/01/18 13:10:18;;;;;;;0.40;0.40;;;;;;;;;;5066762;28;20064;-67
2022/01/18 13:12:44;;;;;;;0.25;0.25;;;;;;;;;;5034939;28;20117;-69
2022/01/18 13:15:11;;;;;;;0.28;0.28;;;;;;;;;;5036473;28;20440;-67
2022/01/18 13:23:21;;;;;;;0.30;0.30;;;;;;;;;;5071182;28;20119;-68
2022/01/18 13:25:54;;;;;;;1.13;1.13;;;;;;;;;;5041126;28;20059;-69
2022/01/18 13:28:30;;;;;;;0.45;0.40;;;;;;;;;;5052234;28;20367;-68
2022/01/18 13:30:59;;;;;;;0.80;0.65;;;;;;;;;;5043208;28;20071;-68
2022/01/18 13:33:25;;;;;;;0.20;0.20;;;;;;;;;;5041443;28;20041;-68
2022/01/18 13:35:50;;;;;;;0.30;0.30;;;;;;;;;;5068599;28;20075;-68
2022/01/18 13:38:16;;;;;;;0.40;0.40;;;;;;;;;;5068671;28;20440;-68
2022/01/18 13:40:45;;;;;;;0.30;0.30;;;;;;;;;;5078304;28;20020;-68
2022/01/18 13:43:14;;;;;;;0.30;0.30;;;;;;;;;;5089122;28;20439;-69
2022/01/18 13:45:44;;;;;;;0.70;0.70;;;;;;;;;;5086910;28;20117;-68
2022/01/18 13:48:11;;;;;;;0.50;0.50;;;;;;;;;;5044579;28;20043;-67
2022/01/18 13:50:50;;;;;;;0.38;0.38;;;;;;;;;;5033443;28;20072;-69
2022/01/18 13:53:19;;;;;;;0.40;0.40;;;;;;;;;;5033609;28;20490;-69
2022/01/18 13:55:48;;;;;;;0.30;0.30;;;;;;;;;;5050374;28;20025;-68
2022/01/18 13:58:18;;;;;;;0.53;0.53;;;;;;;;;;5065585;28;20115;-68
2022/01/18 14:00:43;;;;;;;0.30;0.30;;;;;;;;;;5087886;28;20452;-68
2022/01/18 14:03:09;;;;;;;0.30;0.30;;;;;;;;;;5088963;28;20099;-67
2022/01/18 14:05:34;;;;;;;0.40;0.40;;;;;;;;;;5090216;28;20046;-68
2022/01/18 14:08:01;;;;;;;0.40;0.40;;;;;;;;;;5089904;28;20036;-68
2022/01/18 14:10:26;;;;;;;0.30;0.30;;;;;;;;;;5071454;28;20064;-68
2022/01/18 14:12:52;;;;;;;1.52;1.48;;;;;;;;;;5088422;28;20086;-69
2022/01/18 14:15:36;;;;;;;0.40;0.40;;;;;;;;;;5071442;28;20023;-68
2022/01/18 14:18:02;;;;;;;0.30;0.30;;;;;;;;;;5089894;28;20032;-68
2022/01/18 14:20:30;;;;;;;0.22;0.22;;;;;;;;;;5087040;28;20089;-69
2022/01/18 14:22:56;;;;;;;0.30;0.30;;;;;;;;;;5065011;28;20426;-70
2022/01/18 14:25:27;;;;;;;0.40;0.40;;;;;;;;;;5063784;28;20064;-69
2022/01/18 14:27:52;;;;;;;0.30;0.30;;;;;;;;;;5050203;28;20039;-70
2022/01/18 14:30:24;;;;;;;0.30;0.30;;;;;;;;;;5067363;28;20045;-69
2022/01/18 14:32:50;;;;;;;0.20;0.20;;;;;;;;;;5051625;28;20223;-70
2022/01/18 14:35:20;;;;;;;0.30;0.30;;;;;;;;;;5069260;28;20482;-69
2022/01/18 14:37:50;;;;;;;2.15;2.05;;;;;;;;;;5051521;28;20038;-71
2022/01/18 14:40:23;;;;;;;2.13;2.03;;;;;;;;;;5067158;28;20036;-69
2022/01/18 14:42:55;;;;;;;0.30;0.30;;;;;;;;;;5032833;28;20036;-70
2022/01/18 14:47:47;;;;;;;0.40;0.40;;;;;;;;;;5067433;28;20056;-68
2022/01/18 14:50:17;;;;;;;0.95;0.95;;;;;;;;;;5067208;28;20395;-68
2022/01/18 14:52:45;;;;;;;0.22;0.22;;;;;;;;;;5030981;28;20043;-68
2022/01/18 14:55:11;;;;;;;0.30;0.30;;;;;;;;;;5085186;28;20046;-68
2022/01/18 14:57:37;;;;;;;0.20;0.20;;;;;;;;;;5086706;28;20103;-68
2022/01/18 15:00:04;;;;;;;0.28;0.28;;;;;;;;;;5089612;28;20031;-69
2022/01/18 15:02:30;;;;;;;0.30;0.30;;;;;;;;;;5089312;28;20054;-70
2022/01/18 15:04:56;;;;;;;0.30;0.30;;;;;;;;;;5088966;28;20093;-70
2022/01/18 15:07:21;;;;;;;0.30;0.30;;;;;;;;;;5070365;28;20479;-69
2022/01/18 15:09:47;;;;;;;0.20;0.20;;;;;;;;;;5054205;28;20073;-68
2022/01/18 15:12:12;;;;;;;0.20;0.20;;;;;;;;;;5089331;28;20494;-69
2022/01/18 15:14:38;;;;;;;0.20;0.20;;;;;;;;;;5088556;28;20063;-68
2022/01/18 15:17:03;;;;;;;0.50;0.50;;;;;;;;;;5088919;28;20055;-68
2022/01/18 15:19:30;;;;;;;0.30;0.30;;;;;;;;;;5088961;28;20020;-67
2022/01/18 15:21:55;;;;;;;0.20;0.20;;;;;;;;;;5052738;28;20036;-68
2022/01/18 15:24:22;;;;;;;0.20;0.20;;;;;;;;;;5070702;28;20035;-69
2022/01/18 15:26:49;;;;;;;0.30;0.30;;;;;;;;;;5088520;28;20437;-69
2022/01/18 15:29:16;;;;;;;0.30;0.30;;;;;;;;;;5070728;28;20382;-68
2022/01/18 15:31:43;;;;;;;0.20;0.20;;;;;;;;;;5062620;28;20031;-69
2022/01/18 15:34:09;;;;;;;0.20;0.20;;;;;;;;;;5050495;28;20044;-68
2022/01/18 15:36:34;;;;;;;0.30;0.30;;;;;;;;;;5050020;28;20032;-68
2022/01/18 15:39:00;;;;;;;0.20;0.20;;;;;;;;;;5034203;28;20032;-66
2022/01/18 15:41:26;;;;;;;0.20;0.20;;;;;;;;;;5034315;28;20044;-68
2022/01/18 15:43:52;;;;;;;0.20;0.20;;;;;;;;;;5050446;28;20028;-68
2022/01/18 15:46:19;;;;;;;1.15;0.82;;;;;;;;;;5034047;28;20051;-67
2022/01/18 15:48:44;;;;;;;0.20;0.20;;;;;;;;;;5068379;28;20028;-68
2022/01/18 15:51:10;;;;;;;0.40;0.40;;;;;;;;;;5068097;28;20114;-67
2022/01/18 15:53:36;;;;;;;4.63;3.10;;;;;;;;;;5068220;28;20028;-69
2022/01/18 15:56:01;;;;;;;0.40;0.40;;;;;;;;;;5068377;28;20133;-68
2022/01/18 15:58:27;;;;;;;0.20;0.20;;;;;;;;;;5068355;28;20787;-68
2022/01/18 16:00:52;;;;;;;0.85;0.75;;;;;;;;;;5049984;28;20032;-68
2022/01/18 16:03:19;;;;;;;0.30;0.30;;;;;;;;;;5068067;28;20036;-68
2022/01/18 16:05:45;;;;;;;3.78;1.23;;;;;;;;;;5050059;28;20051;-69
2022/01/18 16:08:11;;;;;;;0.28;0.28;;;;;;;;;;5033416;28;20536;-68
2022/01/18 16:10:37;;;;;;;0.47;0.40;;;;;;;;;;5048401;28;20193;-68